createdAt,value
2018-09-15T05:16:34.084Z,14.00
2018-09-15T05:27:25.950Z,14.00
2018-09-15T05:30:57.250Z,14.20
2018-09-15T05:34:00.132Z,14.20
2018-09-15T05:37:03.089Z,14.20
2018-09-15T05:40:06.011Z,14.20
2018-09-15T05:43:08.904Z,14.20
2018-09-15T05:46:11.769Z,14.30
2018-09-15T05:49:14.716Z,14.30
2018-09-15T05:52:17.595Z,14.40
2018-09-15T05:55:20.496Z,14.40
2018-09-15T05:58:23.425Z,14.60
2018-09-15T06:01:26.325Z,14.70
2018-09-15T06:04:29.212Z,14.60
2018-09-15T06:07:32.175Z,14.60
2018-09-15T06:10:35.097Z,14.70
2018-09-15T06:13:38.063Z,14.60
2018-09-15T06:16:40.937Z,14.50
2018-09-15T06:19:43.845Z,14.40
2018-09-15T06:22:46.765Z,14.50
2018-09-15T06:25:49.651Z,14.50
2018-09-15T06:28:53.015Z,14.60
2018-09-15T06:31:55.942Z,14.50
2018-09-15T06:34:58.834Z,14.70
2018-09-15T06:38:02.680Z,14.60
2018-09-15T06:41:05.651Z,14.60
2018-09-15T06:44:08.557Z,14.60
2018-09-15T06:47:11.429Z,14.60
2018-09-15T06:50:14.365Z,14.70
2018-09-15T06:53:17.276Z,14.80
2018-09-15T06:56:20.177Z,14.80
2018-09-15T06:59:23.180Z,14.80
2018-09-15T07:02:26.045Z,14.80
2018-09-15T07:05:28.995Z,14.70
2018-09-15T07:08:31.896Z,14.80
2018-09-15T07:11:34.862Z,14.70
2018-09-15T07:14:37.933Z,14.80
2018-09-15T07:17:40.857Z,14.80
2018-09-15T07:20:44.368Z,14.90
2018-09-15T07:23:47.280Z,14.90
2018-09-15T07:26:51.008Z,14.90
2018-09-15T07:29:53.985Z,14.90
2018-09-15T07:32:56.886Z,15.00
2018-09-15T07:35:59.856Z,15.00
2018-09-15T07:39:03.628Z,15.20
2018-09-15T07:42:06.554Z,15.20
2018-09-15T07:45:44.513Z,15.30
2018-09-15T07:48:47.518Z,15.40
2018-09-15T07:51:50.495Z,15.40
2018-09-15T07:54:54.267Z,15.60
2018-09-15T07:57:57.331Z,15.50
2018-09-15T08:01:00.174Z,15.50
2018-09-15T08:04:03.156Z,17.20
2018-09-15T08:07:06.108Z,18.70
2018-09-15T08:10:09.085Z,17.40
2018-09-15T08:13:12.080Z,16.70
2018-09-15T08:16:14.962Z,16.30
2018-09-15T08:19:17.931Z,16.20
2018-09-15T08:22:20.885Z,16.10
2018-09-15T08:25:23.796Z,16.00
2018-09-15T08:28:26.727Z,16.10
2018-09-15T08:31:29.664Z,16.10
2018-09-15T08:34:32.603Z,16.10
2018-09-15T08:37:35.501Z,16.00
2018-09-15T08:40:38.520Z,16.10
2018-09-15T08:43:41.444Z,16.20
2018-09-15T08:46:44.366Z,16.30
2018-09-15T08:49:47.303Z,16.30
2018-09-15T08:52:50.275Z,16.40
2018-09-15T08:55:53.317Z,16.60
2018-09-15T08:58:56.292Z,16.50
2018-09-15T09:01:59.295Z,16.40
2018-09-15T09:05:02.210Z,16.50
2018-09-15T09:08:05.157Z,16.50
2018-09-15T09:11:08.076Z,16.60
2018-09-15T09:14:10.948Z,16.60
2018-09-15T09:17:13.894Z,16.60
2018-09-15T09:20:17.518Z,16.60
2018-09-15T09:23:20.444Z,16.50
2018-09-15T09:26:23.469Z,16.40
2018-09-15T09:29:26.232Z,16.40
2018-09-15T09:32:29.202Z,16.70
2018-09-15T09:35:32.117Z,16.50
2018-09-15T09:38:35.160Z,16.40
2018-09-15T09:41:38.149Z,16.40
2018-09-15T09:44:41.040Z,16.40
2018-09-15T09:47:43.997Z,16.50
2018-09-15T09:50:46.937Z,16.60
2018-09-15T09:53:49.860Z,16.70
2018-09-15T09:56:52.781Z,16.90
2018-09-15T09:59:55.681Z,17.20
2018-09-15T10:02:58.623Z,17.30
2018-09-15T10:06:01.589Z,17.20
2018-09-15T10:09:07.761Z,17.10
2018-09-15T10:12:10.743Z,17.10
2018-09-15T10:15:13.670Z,17.10
2018-09-15T10:18:16.600Z,17.10
2018-09-15T10:21:19.537Z,17.20
2018-09-15T10:24:22.448Z,17.60
2018-09-15T10:27:25.401Z,17.60
2018-09-15T10:30:28.278Z,17.40
2018-09-15T10:33:31.182Z,17.70
2018-09-15T10:36:34.086Z,17.70
2018-09-15T10:39:36.984Z,17.90
2018-09-15T10:42:39.889Z,17.70
2018-09-15T10:45:42.851Z,17.70
2018-09-15T10:48:45.852Z,17.30
2018-09-15T10:51:48.830Z,17.40
2018-09-15T10:54:51.764Z,17.30
2018-09-15T10:57:54.657Z,17.40
2018-09-15T11:00:57.582Z,17.70
2018-09-15T11:04:00.527Z,18.10
2018-09-15T11:07:03.449Z,18.30
2018-09-15T11:10:06.456Z,18.30
2018-09-15T11:13:09.434Z,18.70
2018-09-15T11:16:12.376Z,18.30
2018-09-15T11:19:15.296Z,17.90
2018-09-15T11:22:18.239Z,17.60
2018-09-15T11:25:21.166Z,17.50
2018-09-15T11:28:24.132Z,17.30
2018-09-15T11:31:27.068Z,17.30
2018-09-15T11:34:29.969Z,17.30
2018-09-15T11:37:32.850Z,17.30
2018-09-15T11:40:35.820Z,17.40
2018-09-15T11:43:38.748Z,17.40
2018-09-15T11:46:41.673Z,17.40
2018-09-15T11:49:44.591Z,17.40
2018-09-15T11:52:47.852Z,17.40
2018-09-15T11:55:50.804Z,17.50
2018-09-15T11:58:53.768Z,18.10
2018-09-15T12:01:56.689Z,18.60
2018-09-15T12:04:59.728Z,18.80
2018-09-15T12:08:02.628Z,18.80
2018-09-15T12:11:05.552Z,19.00
2018-09-15T12:14:08.542Z,19.10
2018-09-15T12:17:11.427Z,19.50
2018-09-15T12:20:14.351Z,19.20
2018-09-15T12:23:17.287Z,19.10
2018-09-15T12:26:20.153Z,19.10
2018-09-15T12:29:23.016Z,19.00
2018-09-15T12:32:25.918Z,18.80
2018-09-15T12:35:28.847Z,18.70
2018-09-15T12:38:31.844Z,18.70
2018-09-15T12:41:34.721Z,18.70
2018-09-15T12:44:37.594Z,18.60
2018-09-15T12:47:40.540Z,18.50
2018-09-15T12:50:43.522Z,18.50
2018-09-15T12:53:46.505Z,18.40
2018-09-15T12:56:49.416Z,18.20
2018-09-15T12:59:52.353Z,18.20
2018-09-15T13:02:55.289Z,18.20
2018-09-15T13:05:58.200Z,18.20
2018-09-15T13:09:01.164Z,18.20
2018-09-15T13:12:04.057Z,18.20
2018-09-15T13:15:07.048Z,18.20
2018-09-15T13:18:09.968Z,18.20
2018-09-15T13:21:12.903Z,18.20
2018-09-15T13:24:15.816Z,18.30
2018-09-15T13:27:18.724Z,18.40
2018-09-15T13:30:21.714Z,18.50
2018-09-15T13:33:24.530Z,18.50
2018-09-15T13:36:27.478Z,18.40
2018-09-15T13:39:30.351Z,18.30
2018-09-15T13:42:33.237Z,18.20
2018-09-15T13:45:36.251Z,18.10
2018-09-15T13:48:39.172Z,17.90
2018-09-15T13:51:42.075Z,17.90
2018-09-15T13:54:45.005Z,17.90
2018-09-15T13:57:47.919Z,17.80
2018-09-15T14:00:50.856Z,17.80
2018-09-15T14:03:53.796Z,17.70
2018-09-15T14:06:56.757Z,17.70
2018-09-15T14:09:59.708Z,17.70
2018-09-15T14:13:02.608Z,17.80
2018-09-15T14:16:05.654Z,17.70
2018-09-15T14:19:08.549Z,18.80
2018-09-15T14:22:11.513Z,19.60
2018-09-15T14:25:14.416Z,19.30
2018-09-15T14:28:17.349Z,19.20
2018-09-15T14:31:20.382Z,19.40
2018-09-15T14:34:23.362Z,19.40
2018-09-15T14:37:26.213Z,19.40
2018-09-15T14:40:29.201Z,19.50
2018-09-15T14:43:32.192Z,19.60
2018-09-15T14:46:35.109Z,19.70
2018-09-15T14:49:38.041Z,19.70
2018-09-15T14:52:40.998Z,19.70
2018-09-15T14:55:43.929Z,19.70
2018-09-15T14:58:47.176Z,19.60
2018-09-15T15:01:50.204Z,19.50
2018-09-15T15:04:53.338Z,19.60
2018-09-15T15:07:56.320Z,19.70
2018-09-15T15:10:59.309Z,19.70
2018-09-15T15:14:02.313Z,19.80
2018-09-15T15:17:05.399Z,19.80
2018-09-15T15:20:08.433Z,19.70
2018-09-15T15:23:11.358Z,19.80
2018-09-15T15:26:14.326Z,19.80
2018-09-15T15:29:17.332Z,19.80
2018-09-15T15:32:20.261Z,19.80
2018-09-15T15:35:23.312Z,19.70
2018-09-15T15:38:26.182Z,19.70
2018-09-15T15:41:29.092Z,19.70
2018-09-15T15:44:32.026Z,19.80
2018-09-15T15:47:34.988Z,19.90
2018-09-15T15:50:37.986Z,19.90
2018-09-15T15:53:40.973Z,19.80
2018-09-15T15:56:43.935Z,19.80
2018-09-15T15:59:46.857Z,19.80
2018-09-15T16:02:49.741Z,19.80
2018-09-15T16:05:52.662Z,19.80
2018-09-15T16:08:55.506Z,19.70
2018-09-15T16:11:58.485Z,19.70
2018-09-15T16:15:01.387Z,19.60
2018-09-15T16:18:04.376Z,19.70
2018-09-15T16:21:07.289Z,19.70
2018-09-15T16:24:10.252Z,19.60
2018-09-15T16:27:13.202Z,19.70
2018-09-15T16:30:16.108Z,19.70
2018-09-15T16:33:19.234Z,19.70
2018-09-15T16:36:22.146Z,19.70
2018-09-15T16:39:25.049Z,19.60
2018-09-15T16:42:27.937Z,19.70
2018-09-15T16:45:30.843Z,19.60
2018-09-15T16:48:33.757Z,19.50
2018-09-15T16:51:36.769Z,19.60
2018-09-15T16:54:39.664Z,19.70
2018-09-15T16:57:42.542Z,19.70
2018-09-15T17:00:45.430Z,19.70
2018-09-15T17:07:08.457Z,19.90
2018-09-15T17:10:11.473Z,20.10
2018-09-15T17:13:14.317Z,20.20
2018-09-15T17:16:17.497Z,20.00
2018-09-15T17:19:20.416Z,20.00
2018-09-15T17:22:23.369Z,20.00
2018-09-15T17:25:26.255Z,19.80
2018-09-15T17:28:29.187Z,19.60
2018-09-15T17:31:32.151Z,19.60
2018-09-15T17:34:35.145Z,19.60
2018-09-15T17:37:38.037Z,19.50
2018-09-15T17:40:41.021Z,19.50
2018-09-15T17:43:43.972Z,19.20
2018-09-15T17:46:47.037Z,19.00
2018-09-15T17:49:49.933Z,18.80
2018-09-15T17:52:52.859Z,19.00
2018-09-15T17:55:55.766Z,19.10
2018-09-15T17:58:58.779Z,19.10
2018-09-15T18:02:01.741Z,19.00
2018-09-15T18:05:04.720Z,19.00
2018-09-15T18:08:07.807Z,18.90
2018-09-15T18:11:10.742Z,18.90
2018-09-15T18:14:13.672Z,18.80
2018-09-15T18:17:16.676Z,18.70
2018-09-15T18:20:19.736Z,18.30
2018-09-15T18:23:22.681Z,18.80
2018-09-15T18:26:25.668Z,18.90
2018-09-15T18:29:28.644Z,18.80
2018-09-15T18:32:31.597Z,18.80
2018-09-15T18:35:34.566Z,18.70
2018-09-15T18:38:37.575Z,18.20
2018-09-15T18:41:40.551Z,18.60
2018-09-15T18:44:43.505Z,18.60
2018-09-15T18:47:46.457Z,18.60
2018-09-15T18:50:49.532Z,18.70
2018-09-15T18:53:52.525Z,18.60
2018-09-15T18:56:55.546Z,18.50
2018-09-15T18:59:58.657Z,18.60
2018-09-15T19:03:01.697Z,18.50
2018-09-15T19:06:04.567Z,18.50
2018-09-15T19:09:09.360Z,18.50
2018-09-15T19:12:12.339Z,18.50
2018-09-15T19:15:15.286Z,18.60
2018-09-15T19:18:18.260Z,18.60
2018-09-15T19:21:21.342Z,18.60
2018-09-15T19:24:24.332Z,18.70
2018-09-15T19:27:27.263Z,18.60
2018-09-15T19:30:30.265Z,18.60
2018-09-15T19:33:33.177Z,18.70
2018-09-15T19:36:36.155Z,18.70
2018-09-15T19:39:39.158Z,18.70
2018-09-15T19:42:42.141Z,18.40
2018-09-15T19:45:45.417Z,18.00
2018-09-15T19:48:48.375Z,17.90
2018-09-15T19:55:15.337Z,17.40
2018-09-15T19:58:18.304Z,17.10
2018-09-15T20:01:21.301Z,17.00
2018-09-15T20:04:24.273Z,16.90
2018-09-15T20:07:27.210Z,16.80
2018-09-15T20:10:30.245Z,16.60
2018-09-15T20:13:33.180Z,16.60
2018-09-15T20:16:34.644Z,16.60
2018-09-15T20:19:36.104Z,16.60
2018-09-15T20:22:39.041Z,16.50
2018-09-15T20:25:42.325Z,16.50
2018-09-15T20:28:45.399Z,16.50
2018-09-15T20:31:48.292Z,16.50
2018-09-15T20:34:51.198Z,16.40
2018-09-15T20:37:54.181Z,16.40
2018-09-15T20:40:57.022Z,16.40
2018-09-15T20:43:59.939Z,16.40
2018-09-15T20:47:02.834Z,16.30
2018-09-15T20:50:06.823Z,16.00
2018-09-15T20:53:09.736Z,16.10
2018-09-15T20:56:12.606Z,16.10
2018-09-15T20:59:15.569Z,16.10
2018-09-15T21:02:18.472Z,16.10
2018-09-15T21:05:21.480Z,16.10
2018-09-15T21:08:24.394Z,16.10
2018-09-15T21:11:27.391Z,16.10
2018-09-15T21:14:30.451Z,16.30
2018-09-15T21:17:33.373Z,16.20
2018-09-15T21:20:36.276Z,16.20
2018-09-15T21:23:39.193Z,16.20
2018-09-15T21:26:42.183Z,16.10
2018-09-15T21:29:45.104Z,16.10
2018-09-15T21:32:48.708Z,16.00
2018-09-15T21:35:51.721Z,16.00
2018-09-15T21:38:54.631Z,15.80
2018-09-15T21:41:57.557Z,15.90
2018-09-15T21:45:00.473Z,15.90
2018-09-15T21:48:03.432Z,16.10
2018-09-15T21:51:06.700Z,16.00
2018-09-15T21:54:09.567Z,15.80
2018-09-15T21:57:12.512Z,15.60
2018-09-15T22:00:16.578Z,15.60
2018-09-15T22:03:22.500Z,15.60
2018-09-15T22:06:25.461Z,15.60
2018-09-15T22:09:28.472Z,15.60
2018-09-15T22:12:31.377Z,15.40
2018-09-15T22:15:34.225Z,15.50
2018-09-15T22:18:37.181Z,15.60
2018-09-15T22:21:40.125Z,15.70
2018-09-15T22:24:43.028Z,15.70
2018-09-15T22:27:46.057Z,15.70
2018-09-15T22:30:49.061Z,15.60
2018-09-15T22:33:51.976Z,15.50
2018-09-15T22:36:54.872Z,15.30
2018-09-15T22:39:58.515Z,15.20
2018-09-15T22:43:01.458Z,15.20
2018-09-15T22:46:04.460Z,15.20
2018-09-15T22:49:07.409Z,15.20
2018-09-15T22:52:10.351Z,15.10
2018-09-15T22:55:13.233Z,15.20
2018-09-15T22:58:16.144Z,15.20
2018-09-15T23:01:19.018Z,15.30
2018-09-15T23:04:21.963Z,15.30
2018-09-15T23:07:24.932Z,15.10
2018-09-15T23:10:27.819Z,15.00
2018-09-15T23:13:30.740Z,14.90
2018-09-15T23:16:33.655Z,14.80
2018-09-15T23:19:36.525Z,15.00
2018-09-15T23:22:39.455Z,14.90
2018-09-15T23:25:42.372Z,15.00
2018-09-15T23:28:45.269Z,14.90
2018-09-15T23:31:48.184Z,14.90
2018-09-15T23:34:51.117Z,15.10
2018-09-15T23:37:53.973Z,15.10
2018-09-15T23:40:56.854Z,15.10
2018-09-15T23:43:59.794Z,15.10
2018-09-15T23:47:02.708Z,14.90
2018-09-15T23:50:05.923Z,14.80
2018-09-15T23:53:08.872Z,14.80
2018-09-15T23:56:11.764Z,14.70
2018-09-15T23:59:14.628Z,14.50
